Buffalo, MN

3:56 PM CDT on April 23, 2017 (GMT -0500)
Buffalo

Weather History for KCFE - September, 2013

Change the Weather History Date:

Sunday, September 29, 2013

  Actual Average (KMIC) Record (KMIC)
Temperature  
Mean Temperature 60 °F -  
Max Temperature 76 °F 62 °F 84 °F (2000)
Min Temperature 43 °F 40 °F 32 °F (1992)
Degree Days  
Heating Degree Days 6    
Growing Degree Days 10 (Base 50)    
Moisture  
Dew Point 43 °F    
Average Humidity 59    
Maximum Humidity 85    
Minimum Humidity 28    
Precipitation  
Precipitation 0.00 in - - ()
Sea Level Pressure  
Sea Level Pressure 29.88 in    
Wind  
Wind Speed 4 mph (SSE)    
Max Wind Speed 14 mph    
Max Gust Speed 22 mph    
Visibility 10 miles    
Events      
Averages and records for this station are not official NWS values.
T = Trace of Precipitation, MM = Missing Value Source: NWS Daily Summary

Daily Weather History Graph

Daily Weather History Graph

Search for Another Location

Airport or City:

Trip Planner

Search our weather history database for the weather conditions in past years. The results will help you decide how hot, cold, wet, or windy it might be!

Date:

Astronomy

Sep. 29, 2013 Rise Set
Actual Time 7:11 AM CDT 6:59 PM CDT
Civil Twilight 6:41 AM CDT 7:28 PM CDT
Nautical Twilight 6:07 AM CDT 8:02 PM CDT
Astronomical Twilight 5:32 AM CDT 8:37 PM CDT
Moon 1:40 AM CDT (9/29) 4:06 PM CDT (9/29)
Length of Visible Light 12h 46m
Length of Day
11h 47m
Waning Crescent, 27% of the Moon is Illuminated
Sep 29
Waning Crescent
Oct 4
New
Oct 11
First Quarter
Oct 18
Full
Oct 26
Last Quarter

Hourly Weather History & Observations

Time (CDT) Temp. Windchill Dew Point Humidity Pressure Visibility Wind Dir Wind Speed Gust Speed Precip Events Conditions
12:16 AM 48.7 °F - 42.4 °F 79% 29.94 in 10.0 mi South 3.5 mph - N/A   Clear
12:36 AM 48.7 °F - 41.9 °F 77% 29.95 in 10.0 mi South 3.5 mph - N/A   Clear
12:55 AM 48.2 °F - 41.4 °F 77% 29.95 in 10.0 mi South 3.5 mph - N/A   Clear
1:16 AM 47.8 °F - 41.5 °F 79% 29.95 in 10.0 mi Calm Calm - N/A   Clear
1:36 AM 46.6 °F - 41.0 °F 81% 29.95 in 10.0 mi Calm Calm - N/A   Clear
1:55 AM 46.6 °F - 41.0 °F 81% 29.95 in 10.0 mi Calm Calm - N/A   Clear
2:16 AM 46.8 °F - 41.0 °F 80% 29.95 in 10.0 mi Calm Calm - N/A   Clear
2:36 AM 46.4 °F 45.2 °F 40.8 °F 81% 29.95 in 10.0 mi SSE 3.5 mph - N/A   Clear
2:55 AM 46.9 °F - 41.0 °F 80% 29.95 in 10.0 mi South 4.6 mph - N/A   Clear
3:16 AM 46.6 °F - 41.2 °F 81% 29.95 in 10.0 mi South 3.5 mph - N/A   Clear
3:36 AM 46.4 °F - 41.4 °F 83% 29.94 in 10.0 mi Calm Calm - N/A   Clear
3:55 AM 46.4 °F - 41.2 °F 82% 29.94 in 10.0 mi Calm Calm - N/A   Clear
4:16 AM 45.9 °F - 40.6 °F 82% 29.94 in 10.0 mi Calm Calm - N/A   Clear
4:36 AM 45.5 °F - 40.6 °F 83% 29.95 in 10.0 mi Calm Calm - N/A   Clear
4:56 AM 45.5 °F - 40.6 °F 83% 29.95 in 10.0 mi Calm Calm - N/A   Clear
5:16 AM 44.6 °F - 39.9 °F 84% 29.95 in 10.0 mi Calm Calm - N/A   Clear
5:36 AM 44.6 °F 43.1 °F 40.1 °F 84% 29.95 in 10.0 mi South 3.5 mph - N/A   Clear
5:55 AM 44.1 °F - 39.6 °F 84% 29.95 in 10.0 mi Calm Calm - N/A   Clear
6:16 AM 43.7 °F 41.1 °F 39.4 °F 85% 29.95 in 10.0 mi South 4.6 mph - N/A   Clear
6:35 AM 44.1 °F 42.5 °F 39.6 °F 84% 29.96 in 10.0 mi South 3.5 mph - N/A   Clear
6:56 AM 43.7 °F 42.1 °F 39.2 °F 84% 29.95 in 10.0 mi South 3.5 mph - N/A   Clear
7:16 AM 43.7 °F 41.1 °F 39.4 °F 85% 29.96 in 10.0 mi South 4.6 mph - N/A   Clear
7:35 AM 43.7 °F - 39.4 °F 85% 29.96 in 10.0 mi Calm Calm - N/A   Clear
7:56 AM 43.7 °F - 39.6 °F 85% 29.96 in 10.0 mi Calm Calm - N/A   Clear
8:16 AM 45.3 °F 44.0 °F 40.5 °F 83% 29.96 in 10.0 mi South 3.5 mph - N/A   Clear
8:35 AM 46.6 °F - 40.8 °F 80% 29.96 in 10.0 mi SSE 4.6 mph - N/A   Clear
8:56 AM 47.8 °F - 41.2 °F 78% 29.95 in 10.0 mi South 6.9 mph - N/A   Clear
9:16 AM 49.5 °F - 42.3 °F 76% 29.96 in 10.0 mi South 5.8 mph - N/A   Clear
9:35 AM 51.6 °F - 43.0 °F 72% 29.96 in 10.0 mi South 4.6 mph - N/A   Clear
9:56 AM 53.4 °F - 43.2 °F 68% 29.96 in 10.0 mi South 5.8 mph - N/A   Clear
10:16 AM 55.4 °F - 44.2 °F 66% 29.95 in 10.0 mi South 4.6 mph - N/A   Clear
10:35 AM 57.4 °F - 45.1 °F 64% 29.95 in 10.0 mi South 5.8 mph - N/A   Clear
10:56 AM 58.6 °F - 44.6 °F 60% 29.94 in 10.0 mi SSW 5.8 mph - N/A   Clear
11:16 AM 61.7 °F - 45.5 °F 55% 29.94 in 10.0 mi South 4.6 mph - N/A   Clear
11:35 AM 62.8 °F - 46.6 °F 55% 29.94 in 10.0 mi SE 5.8 mph - N/A   Clear
11:56 AM 64.4 °F - 46.2 °F 52% 29.94 in 10.0 mi SSE 5.8 mph - N/A   Clear
12:16 PM 66.4 °F - 45.5 °F 47% 29.93 in 10.0 mi South 5.8 mph - N/A   Clear
12:35 PM 67.3 °F - 45.7 °F 46% 29.92 in 10.0 mi SE 5.8 mph - N/A   Clear
12:56 PM 68.2 °F - 45.9 °F 45% 29.90 in 10.0 mi SE 8.1 mph - N/A   Clear
1:16 PM 69.1 °F - 45.7 °F 43% 29.89 in 10.0 mi SE 9.2 mph - N/A   Clear
1:35 PM 71.1 °F - 45.3 °F 40% 29.88 in 10.0 mi SE 9.2 mph - N/A   Clear
1:56 PM 70.7 °F - 45.0 °F 40% 29.87 in 10.0 mi SE 10.4 mph - N/A   Clear
2:15 PM 71.8 °F - 43.9 °F 37% 29.86 in 10.0 mi SSE 10.4 mph - N/A   Clear
2:36 PM 73.0 °F - 41.9 °F 33% 29.85 in 10.0 mi SSE 11.5 mph 21.9 mph N/A   Clear
2:56 PM 74.3 °F - 40.5 °F 30% 29.84 in 10.0 mi South 11.5 mph 19.6 mph N/A   Clear
3:15 PM 75.4 °F - 41.7 °F 30% 29.84 in 10.0 mi SSE 8.1 mph 17.3 mph N/A   Clear
3:36 PM 75.9 °F - 41.5 °F 29% 29.83 in 10.0 mi SE 11.5 mph 16.1 mph N/A   Clear
3:56 PM 75.9 °F - 41.4 °F 29% 29.82 in 10.0 mi SE 12.7 mph 18.4 mph N/A   Clear
4:15 PM 76.1 °F - 40.6 °F 28% 29.81 in 10.0 mi SSE 9.2 mph 18.4 mph N/A   Clear
4:36 PM 76.1 °F - 40.6 °F 28% 29.80 in 10.0 mi SSE 13.8 mph 18.4 mph N/A   Clear
4:56 PM 76.1 °F - 41.7 °F 29% 29.80 in 10.0 mi SE 8.1 mph - N/A   Clear
5:15 PM 76.1 °F - 41.5 °F 29% 29.79 in 10.0 mi SE 8.1 mph 17.3 mph N/A   Clear
5:36 PM 74.8 °F - 43.0 °F 32% 29.79 in 10.0 mi SE 9.2 mph 17.3 mph N/A   Clear
5:56 PM 73.2 °F - 44.1 °F 35% 29.79 in 10.0 mi SE 6.9 mph - N/A   Clear
6:15 PM 71.6 °F - 45.0 °F 38% 29.78 in 10.0 mi SE 5.8 mph - N/A   Clear
6:36 PM 70.0 °F - 44.8 °F 40% 29.78 in 10.0 mi ESE 9.2 mph - N/A   Clear
6:56 PM 68.9 °F - 45.1 °F 42% 29.77 in 10.0 mi ESE 9.2 mph - N/A   Clear
7:16 PM 66.7 °F - 45.5 °F 46% 29.78 in 10.0 mi SE 6.9 mph - N/A   Clear
7:36 PM 65.7 °F - 45.5 °F 48% 29.78 in 10.0 mi SE 6.9 mph - N/A   Clear
7:55 PM 65.3 °F - 46.0 °F 50% 29.79 in 10.0 mi SE 4.6 mph - N/A   Clear
8:16 PM 64.0 °F - 45.5 °F 51% 29.78 in 10.0 mi SE 4.6 mph - N/A   Clear
8:36 PM 64.4 °F - 44.6 °F 49% 29.79 in 10.0 mi SE 5.8 mph - N/A   Clear
8:55 PM 65.5 °F - 43.9 °F 46% 29.79 in 10.0 mi SE 8.1 mph - N/A   Clear
9:16 PM 65.5 °F - 44.1 °F 46% 29.79 in 10.0 mi SSE 9.2 mph - N/A   Clear
9:36 PM 64.6 °F - 43.7 °F 47% 29.79 in 10.0 mi SSE 10.4 mph - N/A   Clear
9:55 PM 63.9 °F - 43.9 °F 48% 29.79 in 10.0 mi SE 9.2 mph - N/A   Clear
10:16 PM 64.4 °F - 43.5 °F 47% 29.79 in 10.0 mi SSE 9.2 mph 16.1 mph N/A   Clear
10:36 PM 65.5 °F - 43.3 °F 45% 29.79 in 10.0 mi SSE 9.2 mph 17.3 mph N/A   Clear
10:55 PM 64.2 °F - 43.3 °F 47% 29.78 in 10.0 mi SSE 8.1 mph - N/A   Clear
11:16 PM 63.7 °F - 42.8 °F 47% 29.78 in 10.0 mi SSE 9.2 mph - N/A   Clear
11:36 PM 63.7 °F - 42.8 °F 47% 29.78 in 10.0 mi SSE 9.2 mph 16.1 mph N/A   Clear
11:55 PM 63.5 °F - 42.8 °F 47% 29.78 in 10.0 mi SSE 10.4 mph 18.4 mph N/A   Clear